createdAt,value
2022-10-17T04:30:45.452Z,1003.30
2022-10-17T04:31:42.697Z,1003.31
2022-10-17T04:32:42.706Z,1003.31
2022-10-17T04:33:42.675Z,1003.20
2022-10-17T04:34:42.684Z,1003.35
2022-10-17T04:35:42.664Z,1003.31
2022-10-17T04:36:42.647Z,1003.32
2022-10-17T04:37:42.648Z,1003.37
2022-10-17T04:38:42.641Z,1003.33
2022-10-17T04:39:42.638Z,1003.42
2022-10-17T04:40:42.617Z,1003.41
2022-10-17T04:41:42.594Z,1003.44
2022-10-17T04:42:42.587Z,1003.41
2022-10-17T04:43:45.540Z,1003.37
2022-10-17T04:44:43.594Z,1003.31
2022-10-17T04:45:42.549Z,1003.29
2022-10-17T04:46:42.567Z,1003.28
2022-10-17T04:47:42.529Z,1003.33
2022-10-17T04:48:42.515Z,1003.38
2022-10-17T04:49:42.553Z,1003.36
2022-10-17T04:50:42.500Z,1003.38
2022-10-17T04:51:42.508Z,1003.43
2022-10-17T04:52:42.489Z,1003.39
2022-10-17T04:53:42.476Z,1003.40
2022-10-17T04:54:42.455Z,1003.46
2022-10-17T04:55:42.439Z,1003.48
2022-10-17T04:56:42.487Z,1003.39
2022-10-17T04:57:42.422Z,1003.45
2022-10-17T04:58:42.409Z,1003.46
2022-10-17T04:59:42.422Z,1003.49
2022-10-17T05:00:42.551Z,1003.49
2022-10-17T05:01:42.400Z,1003.53
2022-10-17T05:02:42.378Z,1003.48
2022-10-17T05:03:42.359Z,1003.55
2022-10-17T05:04:42.380Z,1003.52
2022-10-17T05:05:42.331Z,1003.45
2022-10-17T05:06:42.313Z,1003.48
2022-10-17T05:07:42.405Z,1003.47
2022-10-17T05:08:42.316Z,1003.46
2022-10-17T05:09:42.295Z,1003.50
2022-10-17T05:10:42.290Z,1003.40
2022-10-17T05:11:42.267Z,1003.40
2022-10-17T05:12:42.276Z,1003.43
2022-10-17T05:13:42.234Z,1003.36
2022-10-17T05:14:42.226Z,1003.32
2022-10-17T05:15:42.230Z,1003.29
2022-10-17T05:16:42.223Z,1003.20
2022-10-17T05:17:42.226Z,1003.23
2022-10-17T05:18:42.199Z,1003.21
2022-10-17T05:19:42.210Z,1003.22
2022-10-17T05:20:42.196Z,1003.19
2022-10-17T05:21:42.147Z,1003.24
2022-10-17T05:22:42.462Z,1003.24
2022-10-17T05:23:42.121Z,1003.27
2022-10-17T05:24:42.131Z,1003.22
2022-10-17T05:25:42.120Z,1003.21
2022-10-17T05:26:42.100Z,1003.20
2022-10-17T05:27:42.101Z,1003.22
2022-10-17T05:28:42.100Z,1003.25
2022-10-17T05:29:42.055Z,1003.29
2022-10-17T05:30:42.095Z,1003.29
2022-10-17T05:31:42.071Z,1003.33
2022-10-17T05:32:42.022Z,1003.30
2022-10-17T05:33:42.043Z,1003.26
2022-10-17T05:34:42.043Z,1003.29
2022-10-17T05:35:42.001Z,1003.25
2022-10-17T05:36:42.045Z,1003.30
2022-10-17T05:37:41.972Z,1003.32
2022-10-17T05:38:41.965Z,1003.30
2022-10-17T05:39:41.971Z,1003.40
2022-10-17T05:40:41.981Z,1003.43
2022-10-17T05:41:42.005Z,1003.44
2022-10-17T05:42:41.958Z,1003.45
2022-10-17T05:43:41.931Z,1003.46
2022-10-17T05:44:41.948Z,1003.45
2022-10-17T05:45:41.893Z,1003.47
2022-10-17T05:46:42.111Z,1003.49
2022-10-17T05:47:41.868Z,1003.47
2022-10-17T05:48:41.856Z,1003.52
2022-10-17T05:49:46.421Z,1003.57
2022-10-17T05:50:42.858Z,1003.56
2022-10-17T05:51:41.844Z,1003.56
2022-10-17T05:52:43.910Z,1003.56
2022-10-17T05:53:41.805Z,1003.59
2022-10-17T05:54:41.791Z,1003.60
2022-10-17T05:55:41.773Z,1003.60
2022-10-17T05:56:41.776Z,1003.55
2022-10-17T05:57:41.752Z,1003.56
2022-10-17T05:58:50.945Z,1003.51
2022-10-17T05:59:42.724Z,1003.54
2022-10-17T06:00:41.824Z,1003.49
2022-10-17T06:01:41.768Z,1003.56
2022-10-17T06:02:41.690Z,1003.54
2022-10-17T06:03:41.713Z,1003.52
2022-10-17T06:04:41.676Z,1003.57
2022-10-17T06:05:41.672Z,1003.54
2022-10-17T06:06:41.705Z,1003.56
2022-10-17T06:07:41.634Z,1003.56
2022-10-17T06:08:41.660Z,1003.58
2022-10-17T06:09:41.682Z,1003.58
2022-10-17T06:10:41.603Z,1003.52
2022-10-17T06:11:41.607Z,1003.52
2022-10-17T06:12:41.586Z,1003.55
2022-10-17T06:13:41.600Z,1003.59
2022-10-17T06:14:41.589Z,1003.61
2022-10-17T06:15:41.750Z,1003.66
2022-10-17T06:16:41.531Z,1003.59
2022-10-17T06:17:41.576Z,1003.66
2022-10-17T06:18:41.707Z,1003.67
2022-10-17T06:19:41.514Z,1003.69
2022-10-17T06:20:45.266Z,1003.71
2022-10-17T06:21:41.508Z,1003.68
2022-10-17T06:22:41.513Z,1003.70
2022-10-17T06:23:41.547Z,1003.77
2022-10-17T06:24:41.491Z,1003.81
2022-10-17T06:25:41.432Z,1003.87
2022-10-17T06:26:41.458Z,1003.81
2022-10-17T06:27:41.528Z,1003.84
2022-10-17T06:28:41.473Z,1003.86
2022-10-17T06:29:41.403Z,1003.80
2022-10-17T06:30:41.412Z,1003.88
2022-10-17T06:31:41.433Z,1003.90
2022-10-17T06:32:41.357Z,1003.85
2022-10-17T06:33:41.370Z,1003.88
2022-10-17T06:34:41.399Z,1003.82
2022-10-17T06:35:41.331Z,1003.87
2022-10-17T06:36:41.311Z,1003.84
2022-10-17T06:37:41.661Z,1003.88
2022-10-17T06:38:41.300Z,1003.84
2022-10-17T06:39:41.321Z,1003.83
2022-10-17T06:40:41.260Z,1003.82
2022-10-17T06:41:41.272Z,1003.82
2022-10-17T06:42:41.278Z,1003.87
2022-10-17T06:43:41.342Z,1003.90
2022-10-17T06:44:41.292Z,1003.92
2022-10-17T06:45:41.218Z,1003.95
2022-10-17T06:46:41.269Z,1003.93
2022-10-17T06:47:41.192Z,1003.98
2022-10-17T06:48:41.181Z,1004.05
2022-10-17T06:49:41.181Z,1004.04
2022-10-17T06:50:41.193Z,1004.08
2022-10-17T06:51:41.148Z,1004.10
2022-10-17T06:52:41.146Z,1004.16
2022-10-17T06:53:41.128Z,1004.20
2022-10-17T06:54:41.229Z,1004.24
2022-10-17T06:55:41.106Z,1004.27
2022-10-17T06:56:41.086Z,1004.24
2022-10-17T06:57:41.071Z,1004.24
2022-10-17T06:58:41.155Z,1004.25
2022-10-17T06:59:41.074Z,1004.21
2022-10-17T07:00:41.209Z,1004.28
2022-10-17T07:01:43.258Z,1004.27
2022-10-17T07:02:42.037Z,1004.25
2022-10-17T07:03:41.176Z,1004.29
2022-10-17T07:04:41.005Z,1004.23
2022-10-17T07:05:41.000Z,1004.23
2022-10-17T07:06:41.008Z,1004.30
2022-10-17T07:07:43.144Z,1004.28
2022-10-17T07:08:40.956Z,1004.34
2022-10-17T07:09:40.970Z,1004.32
2022-10-17T07:10:40.942Z,1004.33
2022-10-17T07:11:41.002Z,1004.29
2022-10-17T07:12:40.921Z,1004.25
2022-10-17T07:13:40.969Z,1004.28
2022-10-17T07:14:40.919Z,1004.28
2022-10-17T07:15:40.897Z,1004.30
2022-10-17T07:16:40.916Z,1004.36
2022-10-17T07:17:40.907Z,1004.33
2022-10-17T07:18:40.846Z,1004.38
2022-10-17T07:19:40.858Z,1004.35
2022-10-17T07:20:40.828Z,1004.42
2022-10-17T07:21:40.836Z,1004.43
2022-10-17T07:22:40.823Z,1004.40
2022-10-17T07:23:40.824Z,1004.45
2022-10-17T07:24:40.915Z,1004.39
2022-10-17T07:25:40.824Z,1004.44
2022-10-17T07:26:40.860Z,1004.43
2022-10-17T07:27:40.798Z,1004.40
2022-10-17T07:28:40.776Z,1004.42
2022-10-17T07:29:40.783Z,1004.43
2022-10-17T07:30:40.725Z,1004.45
2022-10-17T07:31:40.718Z,1004.44
2022-10-17T07:32:40.693Z,1004.44
2022-10-17T07:33:40.731Z,1004.45
2022-10-17T07:34:40.698Z,1004.48
2022-10-17T07:35:40.670Z,1004.44
2022-10-17T07:36:40.700Z,1004.40
2022-10-17T07:37:40.645Z,1004.36
2022-10-17T07:38:40.636Z,1004.41
2022-10-17T07:39:40.620Z,1004.37
2022-10-17T07:40:40.629Z,1004.29
2022-10-17T07:41:40.593Z,1004.34
2022-10-17T07:42:40.684Z,1004.39
2022-10-17T07:43:40.571Z,1004.44
2022-10-17T07:44:40.631Z,1004.42
2022-10-17T07:45:40.562Z,1004.41
2022-10-17T07:46:40.562Z,1004.48
2022-10-17T07:47:40.535Z,1004.55
2022-10-17T07:48:40.524Z,1004.54
2022-10-17T07:49:40.521Z,1004.59
2022-10-17T07:50:40.496Z,1004.58
2022-10-17T07:51:40.590Z,1004.59
2022-10-17T07:52:40.483Z,1004.63
2022-10-17T07:53:42.741Z,1004.59
2022-10-17T07:54:40.467Z,1004.52
2022-10-17T07:55:40.443Z,1004.50
2022-10-17T07:56:40.444Z,1004.51
2022-10-17T07:57:40.425Z,1004.51
2022-10-17T07:58:40.452Z,1004.58
2022-10-17T07:59:40.421Z,1004.57
2022-10-17T08:00:40.468Z,1004.55
2022-10-17T08:01:40.409Z,1004.55
2022-10-17T08:02:40.358Z,1004.57
2022-10-17T08:03:40.388Z,1004.56
2022-10-17T08:04:40.414Z,1004.58
2022-10-17T08:05:40.332Z,1004.63
2022-10-17T08:06:40.401Z,1004.59
2022-10-17T08:07:40.333Z,1004.62
2022-10-17T08:08:40.303Z,1004.60
2022-10-17T08:09:40.285Z,1004.62
2022-10-17T08:10:40.294Z,1004.57
2022-10-17T08:11:40.285Z,1004.56
2022-10-17T08:12:40.251Z,1004.58
2022-10-17T08:13:40.273Z,1004.60
2022-10-17T08:14:40.251Z,1004.57
2022-10-17T08:15:40.241Z,1004.56
2022-10-17T08:16:40.228Z,1004.62
2022-10-17T08:17:40.230Z,1004.62
2022-10-17T08:18:40.203Z,1004.58
2022-10-17T08:19:40.174Z,1004.58
2022-10-17T08:20:40.169Z,1004.53
2022-10-17T08:21:40.184Z,1004.50
2022-10-17T08:22:40.168Z,1004.58
2022-10-17T08:23:40.149Z,1004.52
2022-10-17T08:24:40.126Z,1004.52
2022-10-17T08:25:40.127Z,1004.56
2022-10-17T08:26:43.378Z,1004.54
2022-10-17T08:27:41.136Z,1004.60
2022-10-17T08:28:40.222Z,1004.60
2022-10-17T08:29:40.069Z,1004.50
2022-10-17T08:30:40.126Z,1004.64
2022-10-17T08:31:40.082Z,1004.63
2022-10-17T08:32:40.045Z,1004.57
2022-10-17T08:33:40.038Z,1004.59
2022-10-17T08:34:40.034Z,1004.59
2022-10-17T08:35:40.076Z,1004.62
2022-10-17T08:36:40.029Z,1004.68
2022-10-17T08:37:40.030Z,1004.69
2022-10-17T08:38:43.124Z,1004.69
2022-10-17T08:39:40.017Z,1004.75
2022-10-17T08:40:40.074Z,1004.76
2022-10-17T08:41:39.952Z,1004.81
2022-10-17T08:42:39.943Z,1004.87
2022-10-17T08:43:39.937Z,1004.82
2022-10-17T08:44:39.971Z,1004.79
2022-10-17T08:45:39.932Z,1004.88
2022-10-17T08:46:39.937Z,1004.94
2022-10-17T08:47:39.883Z,1004.99
2022-10-17T08:48:42.751Z,1005.00
2022-10-17T08:49:40.897Z,1004.96
2022-10-17T08:50:39.844Z,1004.97
2022-10-17T08:51:39.828Z,1004.99
2022-10-17T08:52:39.852Z,1005.04
2022-10-17T08:53:39.813Z,1005.10
2022-10-17T08:54:39.796Z,1005.11
2022-10-17T08:55:42.797Z,1005.07
2022-10-17T08:56:48.562Z,1005.08
2022-10-17T08:57:40.816Z,1005.07
2022-10-17T08:58:39.757Z,1005.06
2022-10-17T08:59:39.816Z,1005.08
2022-10-17T09:00:39.744Z,1005.06
2022-10-17T09:01:39.728Z,1005.14
2022-10-17T09:02:39.843Z,1005.15
2022-10-17T09:03:39.727Z,1005.16
2022-10-17T09:04:39.713Z,1005.15
2022-10-17T09:05:39.689Z,1005.14
2022-10-17T09:06:39.697Z,1005.12
2022-10-17T09:07:39.663Z,1005.17
2022-10-17T09:08:39.657Z,1005.16
2022-10-17T09:09:39.663Z,1005.27
2022-10-17T09:10:39.627Z,1005.30
2022-10-17T09:11:39.638Z,1005.28
2022-10-17T09:12:39.601Z,1005.24
2022-10-17T09:13:39.600Z,1005.24
2022-10-17T09:14:39.619Z,1005.19
2022-10-17T09:15:39.582Z,1005.22
2022-10-17T09:16:39.562Z,1005.15
2022-10-17T09:17:39.553Z,1005.11
2022-10-17T09:18:39.567Z,1005.10
2022-10-17T09:19:39.576Z,1005.10
2022-10-17T09:20:39.518Z,1005.08
2022-10-17T09:21:39.503Z,1005.06
2022-10-17T09:22:39.529Z,1005.01
2022-10-17T09:23:41.830Z,1005.04
2022-10-17T09:24:39.480Z,1004.97
2022-10-17T09:25:39.483Z,1004.98
2022-10-17T09:26:39.471Z,1005.03
2022-10-17T09:27:39.457Z,1005.12
2022-10-17T09:28:39.478Z,1005.17
2022-10-17T09:29:43.742Z,1005.22
2022-10-17T09:30:45.227Z,1005.23
2022-10-17T09:31:40.390Z,1005.21
2022-10-17T09:32:39.432Z,1005.25
2022-10-17T09:33:53.938Z,1005.23
2022-10-17T09:34:40.406Z,1005.26
2022-10-17T09:35:39.377Z,1005.30
2022-10-17T09:36:39.347Z,1005.35
2022-10-17T09:37:39.331Z,1005.39
2022-10-17T09:38:39.361Z,1005.32
2022-10-17T09:39:39.313Z,1005.37
2022-10-17T09:40:39.295Z,1005.37
2022-10-17T09:41:45.438Z,1005.40
2022-10-17T09:42:40.298Z,1005.40
2022-10-17T09:43:39.282Z,1005.50
2022-10-17T09:44:39.312Z,1005.49
2022-10-17T09:45:39.320Z,1005.48
2022-10-17T09:46:39.239Z,1005.52
2022-10-17T09:47:39.219Z,1005.44
2022-10-17T09:48:39.230Z,1005.50
2022-10-17T09:49:39.226Z,1005.49
2022-10-17T09:50:39.207Z,1005.62
2022-10-17T09:51:39.210Z,1005.61
2022-10-17T09:52:39.191Z,1005.70
2022-10-17T09:53:39.158Z,1005.74
2022-10-17T09:54:39.167Z,1005.72
2022-10-17T09:55:39.131Z,1005.78
2022-10-17T09:56:39.139Z,1005.74
2022-10-17T09:57:39.144Z,1005.72
2022-10-17T09:58:39.101Z,1005.70
2022-10-17T09:59:39.109Z,1005.69
2022-10-17T10:00:39.196Z,1005.73
2022-10-17T10:01:39.064Z,1005.72
2022-10-17T10:02:39.102Z,1005.69
2022-10-17T10:03:39.065Z,1005.71
2022-10-17T10:04:53.070Z,1005.69
2022-10-17T10:05:40.027Z,1005.65
2022-10-17T10:06:39.029Z,1005.62
2022-10-17T10:07:39.042Z,1005.64
2022-10-17T10:08:38.987Z,1005.66
2022-10-17T10:09:40.194Z,1005.58
2022-10-17T10:10:38.970Z,1005.56
2022-10-17T10:11:38.995Z,1005.60
2022-10-17T10:12:38.965Z,1005.58
2022-10-17T10:13:38.951Z,1005.66
2022-10-17T10:14:38.924Z,1005.63
2022-10-17T10:15:38.951Z,1005.69
2022-10-17T10:16:38.926Z,1005.74
2022-10-17T10:17:38.926Z,1005.75
2022-10-17T10:18:38.893Z,1005.73
2022-10-17T10:19:38.902Z,1005.74
2022-10-17T10:20:38.880Z,1005.71
2022-10-17T10:21:38.854Z,1005.72
2022-10-17T10:22:38.880Z,1005.73
2022-10-17T10:23:38.858Z,1005.78
2022-10-17T10:24:38.832Z,1005.72
2022-10-17T10:25:38.806Z,1005.68
2022-10-17T10:26:38.841Z,1005.76
2022-10-17T10:27:38.786Z,1005.77
2022-10-17T10:28:38.828Z,1005.79
2022-10-17T10:29:38.764Z,1005.85
2022-10-17T10:30:39.931Z,1005.77
2022-10-17T10:31:38.764Z,1005.76
2022-10-17T10:32:38.723Z,1005.82
2022-10-17T10:33:41.577Z,1005.85
2022-10-17T10:34:38.721Z,1005.84
2022-10-17T10:35:38.699Z,1005.89
2022-10-17T10:36:38.707Z,1005.87
2022-10-17T10:37:38.689Z,1005.90
2022-10-17T10:38:38.702Z,1005.92
2022-10-17T10:39:38.659Z,1005.94
2022-10-17T10:40:38.655Z,1005.93
2022-10-17T10:41:38.665Z,1005.96
2022-10-17T10:42:38.674Z,1006.00
2022-10-17T10:43:38.626Z,1005.99
2022-10-17T10:44:38.623Z,1006.00
2022-10-17T10:45:54.130Z,1006.02
2022-10-17T10:46:39.588Z,1006.03
2022-10-17T10:47:38.600Z,1006.04
2022-10-17T10:48:38.578Z,1006.05
2022-10-17T10:49:38.621Z,1006.04
2022-10-17T10:50:42.996Z,1006.06
2022-10-17T10:51:39.524Z,1006.01
2022-10-17T10:52:38.534Z,1006.01
2022-10-17T10:53:38.517Z,1006.00
2022-10-17T10:55:38.505Z,1006.06
2022-10-17T10:56:38.478Z,1006.12
2022-10-17T10:57:38.490Z,1006.10
2022-10-17T10:58:41.832Z,1006.16
2022-10-17T10:59:38.447Z,1006.17
2022-10-17T11:00:38.493Z,1006.16
2022-10-17T11:01:38.488Z,1006.14
2022-10-17T11:02:38.412Z,1006.16
2022-10-17T11:03:38.467Z,1006.20
2022-10-17T11:04:38.423Z,1006.18
2022-10-17T11:05:38.446Z,1006.19
2022-10-17T11:06:38.371Z,1006.26
2022-10-17T11:07:38.382Z,1006.23
2022-10-17T11:08:38.335Z,1006.22
2022-10-17T11:09:38.344Z,1006.27
2022-10-17T11:10:38.357Z,1006.30
2022-10-17T11:11:38.332Z,1006.30
2022-10-17T11:12:38.345Z,1006.31
2022-10-17T11:13:38.329Z,1006.32
2022-10-17T11:14:38.296Z,1006.30
2022-10-17T11:15:38.278Z,1006.32
2022-10-17T11:16:38.261Z,1006.30
2022-10-17T11:17:38.285Z,1006.36
2022-10-17T11:18:38.258Z,1006.36
2022-10-17T11:19:38.249Z,1006.39
2022-10-17T11:20:38.216Z,1006.37
2022-10-17T11:21:38.249Z,1006.37
2022-10-17T11:22:38.579Z,1006.38
2022-10-17T11:23:38.180Z,1006.35
2022-10-17T11:24:38.169Z,1006.38
2022-10-17T11:25:38.185Z,1006.38
2022-10-17T11:26:38.192Z,1006.35
2022-10-17T11:27:38.787Z,1006.36
2022-10-17T11:28:38.188Z,1006.29
2022-10-17T11:29:38.130Z,1006.25
2022-10-17T11:30:38.172Z,1006.28
2022-10-17T11:31:38.116Z,1006.27
2022-10-17T11:32:38.085Z,1006.22
2022-10-17T11:33:38.114Z,1006.18
2022-10-17T11:34:38.066Z,1006.16
2022-10-17T11:35:38.067Z,1006.17
2022-10-17T11:36:38.041Z,1006.18
2022-10-17T11:37:39.525Z,1006.17
2022-10-17T11:38:38.038Z,1006.18
2022-10-17T11:39:38.077Z,1006.18
2022-10-17T11:40:38.007Z,1006.16
2022-10-17T11:41:37.989Z,1006.18
2022-10-17T11:42:38.003Z,1006.20
2022-10-17T11:43:37.969Z,1006.23
2022-10-17T11:44:37.984Z,1006.22
2022-10-17T11:45:37.959Z,1006.19
2022-10-17T11:46:37.954Z,1006.21
2022-10-17T11:47:37.924Z,1006.20
2022-10-17T11:48:37.927Z,1006.26
2022-10-17T11:49:40.700Z,1006.27
2022-10-17T11:53:05.433Z,1006.24
2022-10-17T11:53:38.863Z,1006.19
2022-10-17T11:54:37.850Z,1006.17
2022-10-17T11:55:37.859Z,1006.12
2022-10-17T11:56:41.863Z,1006.12
2022-10-17T11:57:38.804Z,1006.25
2022-10-17T11:58:37.832Z,1006.28
2022-10-17T11:59:37.808Z,1006.33
2022-10-17T12:00:40.720Z,1006.27
2022-10-17T12:01:38.049Z,1006.23
2022-10-17T12:02:37.767Z,1006.28
2022-10-17T12:03:37.823Z,1006.28
2022-10-17T12:04:37.795Z,1006.27
2022-10-17T12:05:37.716Z,1006.26
2022-10-17T12:06:37.726Z,1006.28
2022-10-17T12:07:37.764Z,1006.22
2022-10-17T12:08:37.700Z,1006.25
2022-10-17T12:09:37.714Z,1006.24
2022-10-17T12:10:37.672Z,1006.26
2022-10-17T12:11:37.683Z,1006.26
2022-10-17T12:12:37.680Z,1006.29
2022-10-17T12:13:37.634Z,1006.30
2022-10-17T12:14:37.735Z,1006.29
2022-10-17T12:15:37.748Z,1006.32
2022-10-17T12:16:37.660Z,1006.36
2022-10-17T12:17:37.584Z,1006.36
2022-10-17T12:18:37.588Z,1006.35
2022-10-17T12:19:37.647Z,1006.35
2022-10-17T12:20:37.563Z,1006.36
2022-10-17T12:21:40.404Z,1006.35
2022-10-17T12:22:38.542Z,1006.29
2022-10-17T12:23:37.524Z,1006.36
2022-10-17T12:24:37.560Z,1006.32
2022-10-17T12:25:37.555Z,1006.30
2022-10-17T12:26:37.491Z,1006.30
2022-10-17T12:27:37.489Z,1006.30
2022-10-17T12:28:37.495Z,1006.29
2022-10-17T12:29:37.460Z,1006.30
2022-10-17T12:30:37.498Z,1006.31
2022-10-17T12:31:37.433Z,1006.34
2022-10-17T12:32:53.342Z,1006.32
2022-10-17T12:33:38.438Z,1006.32
2022-10-17T12:34:37.463Z,1006.38
2022-10-17T12:35:37.400Z,1006.37
2022-10-17T12:36:37.397Z,1006.37
2022-10-17T12:37:37.371Z,1006.43
2022-10-17T12:38:37.409Z,1006.42
2022-10-17T12:39:37.396Z,1006.44
2022-10-17T12:40:37.354Z,1006.46
2022-10-17T12:41:37.328Z,1006.47
2022-10-17T12:42:37.332Z,1006.48
2022-10-17T12:43:39.674Z,1006.53
2022-10-17T12:44:38.336Z,1006.51
2022-10-17T12:45:37.297Z,1006.54
2022-10-17T12:46:37.290Z,1006.50
2022-10-17T12:47:37.258Z,1006.49
2022-10-17T12:48:37.253Z,1006.48
2022-10-17T12:49:37.261Z,1006.49
2022-10-17T12:50:38.154Z,1006.51
2022-10-17T12:51:37.962Z,1006.49
2022-10-17T12:52:37.245Z,1006.45
2022-10-17T12:53:37.206Z,1006.50
2022-10-17T12:54:47.024Z,1006.43
2022-10-17T12:55:38.193Z,1006.46
2022-10-17T12:56:37.175Z,1006.42
2022-10-17T12:57:37.664Z,1006.43
2022-10-17T12:58:37.180Z,1006.43
2022-10-17T12:59:37.148Z,1006.41
2022-10-17T13:00:37.212Z,1006.44
2022-10-17T13:01:37.150Z,1006.46
2022-10-17T13:02:37.125Z,1006.44
2022-10-17T13:03:37.089Z,1006.48
2022-10-17T13:04:37.095Z,1006.46
2022-10-17T13:05:37.083Z,1006.48
2022-10-17T13:06:37.053Z,1006.55
2022-10-17T13:07:37.046Z,1006.54
2022-10-17T13:08:37.057Z,1006.60
2022-10-17T13:09:37.024Z,1006.60
2022-10-17T13:10:38.834Z,1006.70
2022-10-17T13:11:37.016Z,1006.71
2022-10-17T13:12:41.119Z,1006.71
2022-10-17T13:13:36.992Z,1006.75
2022-10-17T13:14:36.972Z,1006.77
2022-10-17T13:15:36.962Z,1006.72
2022-10-17T13:16:37.041Z,1006.72
2022-10-17T13:17:40.615Z,1006.75
2022-10-17T13:18:37.977Z,1006.73
2022-10-17T13:20:36.912Z,1006.74
2022-10-17T13:21:36.896Z,1006.79
2022-10-17T13:22:36.886Z,1006.77
2022-10-17T13:23:36.926Z,1006.76
2022-10-17T13:24:36.867Z,1006.76
2022-10-17T13:25:39.508Z,1006.77
2022-10-17T13:26:36.868Z,1006.80
2022-10-17T13:27:36.853Z,1006.79
2022-10-17T13:28:39.376Z,1006.79
2022-10-17T13:29:36.847Z,1006.84
2022-10-17T13:30:36.800Z,1006.79
2022-10-17T13:31:36.801Z,1006.84
2022-10-17T13:32:36.779Z,1006.81
2022-10-17T13:33:36.758Z,1006.85
2022-10-17T13:34:36.777Z,1006.85
2022-10-17T13:35:55.728Z,1006.84
2022-10-17T13:36:37.740Z,1006.92
2022-10-17T13:37:36.749Z,1006.88
2022-10-17T13:38:39.013Z,1006.85
2022-10-17T13:39:54.364Z,1006.88
2022-10-17T13:40:49.051Z,1006.88
2022-10-17T13:41:37.685Z,1006.92
2022-10-17T13:42:36.697Z,1006.92
2022-10-17T13:43:36.646Z,1006.89
2022-10-17T13:44:38.542Z,1006.92
2022-10-17T13:45:36.626Z,1006.91
2022-10-17T13:46:38.391Z,1006.91
2022-10-17T13:47:36.634Z,1006.91
2022-10-17T13:48:36.600Z,1006.93
2022-10-17T13:49:36.616Z,1006.93
2022-10-17T13:50:44.756Z,1006.97
2022-10-17T13:51:37.578Z,1006.98
2022-10-17T13:52:36.543Z,1006.98
2022-10-17T13:53:36.598Z,1006.96
2022-10-17T13:54:36.534Z,1006.94
2022-10-17T13:55:36.525Z,1006.97
2022-10-17T13:56:36.505Z,1006.97
2022-10-17T13:57:36.516Z,1006.98
2022-10-17T13:58:36.496Z,1006.97
2022-10-17T13:59:36.513Z,1006.99
2022-10-17T14:00:36.565Z,1006.95
2022-10-17T14:01:36.468Z,1006.99
2022-10-17T14:02:36.483Z,1006.98
2022-10-17T14:03:48.165Z,1007.02
2022-10-17T14:05:04.016Z,1007.01
2022-10-17T14:05:37.431Z,1007.00
2022-10-17T14:06:36.413Z,1006.93
2022-10-17T14:07:58.060Z,1006.99
2022-10-17T14:08:37.449Z,1006.95
2022-10-17T14:09:36.363Z,1006.99
2022-10-17T14:10:36.385Z,1007.03
2022-10-17T14:11:36.361Z,1007.02
2022-10-17T14:12:36.389Z,1007.07
2022-10-17T14:13:36.329Z,1007.07
2022-10-17T14:14:51.984Z,1007.09
2022-10-17T14:15:37.384Z,1007.07
2022-10-17T14:16:36.307Z,1007.02
2022-10-17T14:17:36.274Z,1007.07
2022-10-17T14:18:36.853Z,1007.07
2022-10-17T14:19:36.299Z,1007.00
2022-10-17T14:21:44.157Z,1007.06
2022-10-17T14:22:37.308Z,1007.05
2022-10-17T14:23:36.227Z,1007.09
2022-10-17T14:24:36.197Z,1007.14
2022-10-17T14:25:36.216Z,1007.08
2022-10-17T14:26:36.196Z,1007.10
2022-10-17T14:27:36.171Z,1007.06
2022-10-17T14:28:36.217Z,1007.13
2022-10-17T14:29:36.207Z,1007.12
2022-10-17T14:30:55.832Z,1007.05
2022-10-17T14:31:37.140Z,1007.04
2022-10-17T14:32:36.117Z,1007.12
2022-10-17T14:33:38.522Z,1007.06
2022-10-17T14:34:37.133Z,1007.11
2022-10-17T14:35:41.939Z,1006.99
2022-10-17T14:36:37.093Z,1007.08
2022-10-17T14:37:36.069Z,1007.12
2022-10-17T14:38:36.086Z,1007.15
2022-10-17T14:39:36.060Z,1007.15
2022-10-17T14:40:36.037Z,1007.21
2022-10-17T14:41:44.120Z,1007.21
2022-10-17T14:42:37.027Z,1007.21
2022-10-17T14:43:36.018Z,1007.21
2022-10-17T14:44:35.980Z,1007.26
2022-10-17T14:45:35.992Z,1007.25
2022-10-17T14:46:35.961Z,1007.27
2022-10-17T14:47:43.682Z,1007.27
2022-10-17T14:48:36.971Z,1007.29
2022-10-17T14:49:35.964Z,1007.27
2022-10-17T14:50:36.046Z,1007.23
2022-10-17T14:51:44.928Z,1007.28
2022-10-17T14:52:37.053Z,1007.26
2022-10-17T14:53:35.885Z,1007.28
2022-10-17T14:54:35.924Z,1007.27
2022-10-17T14:55:35.882Z,1007.29
2022-10-17T14:56:35.896Z,1007.31
2022-10-17T14:57:35.849Z,1007.35
2022-10-17T14:58:35.845Z,1007.38
2022-10-17T14:59:53.384Z,1007.41
2022-10-17T15:00:36.813Z,1007.40
2022-10-17T15:01:35.837Z,1007.47
2022-10-17T15:02:35.798Z,1007.46
2022-10-17T15:03:35.849Z,1007.50
2022-10-17T15:04:35.792Z,1007.47
2022-10-17T15:05:35.777Z,1007.50
2022-10-17T15:06:35.747Z,1007.48
2022-10-17T15:07:35.734Z,1007.51
2022-10-17T15:08:35.817Z,1007.54
2022-10-17T15:09:35.709Z,1007.54
2022-10-17T15:10:35.754Z,1007.55
2022-10-17T15:11:35.684Z,1007.55
2022-10-17T15:12:35.670Z,1007.60
2022-10-17T15:13:40.958Z,1007.59
2022-10-17T15:14:36.659Z,1007.58
2022-10-17T15:15:35.684Z,1007.60
2022-10-17T15:16:35.654Z,1007.61
2022-10-17T15:17:35.716Z,1007.62
2022-10-17T15:18:35.615Z,1007.68
2022-10-17T15:19:35.619Z,1007.67
2022-10-17T15:20:35.589Z,1007.67
2022-10-17T15:21:43.205Z,1007.71
2022-10-17T15:22:36.584Z,1007.71
2022-10-17T15:23:35.556Z,1007.69
2022-10-17T15:24:35.548Z,1007.72
2022-10-17T15:25:35.539Z,1007.71
2022-10-17T15:26:35.567Z,1007.74
2022-10-17T15:27:35.584Z,1007.70
2022-10-17T15:28:35.538Z,1007.69
2022-10-17T15:29:35.509Z,1007.66
2022-10-17T15:30:35.484Z,1007.72
2022-10-17T15:31:35.485Z,1007.70
2022-10-17T15:32:35.494Z,1007.71
2022-10-17T15:33:35.467Z,1007.72
2022-10-17T15:34:35.461Z,1007.75
2022-10-17T15:35:35.427Z,1007.71
2022-10-17T15:36:35.417Z,1007.72
2022-10-17T15:37:35.457Z,1007.70
2022-10-17T15:38:35.406Z,1007.66
2022-10-17T15:39:35.430Z,1007.64
2022-10-17T15:40:35.375Z,1007.68
2022-10-17T15:41:35.367Z,1007.69
2022-10-17T15:42:35.373Z,1007.67
2022-10-17T15:43:35.373Z,1007.69
2022-10-17T15:44:35.331Z,1007.70
2022-10-17T15:45:35.317Z,1007.68
2022-10-17T15:46:35.326Z,1007.70
2022-10-17T15:47:35.301Z,1007.68
2022-10-17T15:48:35.318Z,1007.67
2022-10-17T15:49:35.283Z,1007.69
2022-10-17T15:50:35.272Z,1007.71
2022-10-17T15:51:35.264Z,1007.73
2022-10-17T15:52:35.247Z,1007.76
2022-10-17T15:53:35.278Z,1007.79
2022-10-17T15:54:35.213Z,1007.81
2022-10-17T15:55:35.267Z,1007.88
2022-10-17T15:56:35.206Z,1007.93
2022-10-17T15:57:35.183Z,1007.97
2022-10-17T15:58:35.222Z,1008.00
2022-10-17T15:59:35.188Z,1008.01
2022-10-17T16:00:35.233Z,1008.07
2022-10-17T16:01:35.159Z,1008.08
2022-10-17T16:02:35.132Z,1008.08
2022-10-17T16:03:35.121Z,1008.13
2022-10-17T16:04:35.111Z,1008.14
2022-10-17T16:05:35.131Z,1008.15
2022-10-17T16:06:35.107Z,1008.17
2022-10-17T16:07:35.072Z,1008.22
2022-10-17T16:08:35.059Z,1008.26
2022-10-17T16:09:35.047Z,1008.24
2022-10-17T16:10:35.096Z,1008.27
2022-10-17T16:11:35.061Z,1008.23
2022-10-17T16:12:35.017Z,1008.27
2022-10-17T16:13:35.015Z,1008.28
2022-10-17T16:14:35.015Z,1008.24
2022-10-17T16:15:34.990Z,1008.30
2022-10-17T16:16:35.014Z,1008.26
2022-10-17T16:17:34.973Z,1008.27
2022-10-17T16:18:34.965Z,1008.31
2022-10-17T16:19:34.995Z,1008.28
2022-10-17T16:20:34.975Z,1008.27
2022-10-17T16:21:34.932Z,1008.29
2022-10-17T16:22:34.935Z,1008.36
2022-10-17T16:23:34.898Z,1008.31
2022-10-17T16:24:34.910Z,1008.29
2022-10-17T16:25:34.911Z,1008.32
2022-10-17T16:26:34.877Z,1008.30
2022-10-17T16:27:34.863Z,1008.28
2022-10-17T16:28:34.881Z,1008.38
2022-10-17T16:29:34.862Z,1008.39
2022-10-17T16:30:34.858Z,1008.37
2022-10-17T16:31:34.875Z,1008.39
2022-10-17T16:32:34.811Z,1008.41
2022-10-17T16:33:34.810Z,1008.41
2022-10-17T16:34:34.783Z,1008.38
2022-10-17T16:35:37.482Z,1008.41
2022-10-17T16:36:34.763Z,1008.42
2022-10-17T16:37:34.770Z,1008.45
2022-10-17T16:38:34.764Z,1008.46
2022-10-17T16:39:34.739Z,1008.45
2022-10-17T16:40:34.705Z,1008.47